Time;durP1;ratioP1;P1;durP2;ratioP2;P2;SDS_P1;SDS_P2;PMS_P1;PMS_P2;Temp;Humidity;BMP_temperature;BMP_pressure;BME280_temperature;BME280_humidity;BME280_pressure;Samples;Min_cycle;Max_cycle;Signal;HPM_P1;HPM_P2
2023/06/09 00:01:45;;;;;;;12.90;10.70;;;15.20;99.90;;;;;;4149082;28;20302;-75
2023/06/09 00:03:50;;;;;;;16.10;10.60;;;15.10;99.90;;;;;;4151887;28;20235;-75
2023/06/09 00:05:53;;;;;;;12.93;10.30;;;15.10;99.90;;;;;;4145323;28;20569;-75
2023/06/09 00:07:56;;;;;;;12.43;9.33;;;15.10;99.90;;;;;;4147441;28;20218;-75
2023/06/09 00:09:58;;;;;;;11.53;9.33;;;15.00;99.90;;;;;;4155716;28;20297;-75
2023/06/09 00:12:00;;;;;;;12.13;9.90;;;15.00;99.90;;;;;;4152403;28;20302;-75
2023/06/09 00:14:03;;;;;;;12.17;9.67;;;15.00;99.90;;;;;;4149451;28;20670;-76
2023/06/09 00:16:05;;;;;;;12.13;9.33;;;15.00;99.90;;;;;;4148224;28;20232;-73
2023/06/09 00:18:07;;;;;;;12.27;9.20;;;14.90;99.90;;;;;;4147237;28;20307;-73
2023/06/09 00:20:11;;;;;;;12.87;9.77;;;14.90;99.90;;;;;;4146521;28;20249;-73
2023/06/09 00:22:13;;;;;;;11.10;9.53;;;14.90;99.90;;;;;;4147791;28;20705;-74
2023/06/09 00:24:18;;;;;;;12.33;9.90;;;14.90;99.90;;;;;;4147737;28;20238;-74
2023/06/09 00:26:20;;;;;;;13.60;10.33;;;14.90;99.90;;;;;;4146815;28;20224;-73
2023/06/09 00:28:22;;;;;;;14.07;10.40;;;14.90;99.90;;;;;;4145464;28;20252;-74
2023/06/09 00:30:24;;;;;;;13.37;10.73;;;14.90;99.90;;;;;;4148141;28;20246;-74
2023/06/09 00:32:27;;;;;;;11.63;10.33;;;14.90;99.90;;;;;;4149486;28;20249;-73
2023/06/09 00:34:29;;;;;;;12.83;10.60;;;14.90;99.90;;;;;;4147240;28;20245;-73
2023/06/09 00:36:31;;;;;;;12.10;10.10;;;14.80;99.90;;;;;;4148734;28;20675;-76
2023/06/09 00:38:33;;;;;;;11.80;9.70;;;14.80;99.90;;;;;;4146494;28;20272;-75
2023/06/09 00:40:36;;;;;;;11.53;9.63;;;14.80;99.90;;;;;;4147621;28;20252;-76
2023/06/09 00:42:38;;;;;;;11.10;9.63;;;14.80;99.90;;;;;;4148401;28;20747;-76
2023/06/09 00:44:40;;;;;;;14.57;11.37;;;14.70;99.90;;;;;;4145936;28;20239;-75
2023/06/09 00:46:43;;;;;;;13.60;11.20;;;14.70;99.90;;;;;;4148134;28;20744;-73
2023/06/09 00:48:45;;;;;;;16.47;12.00;;;14.70;99.90;;;;;;4146656;28;20259;-76
2023/06/09 00:50:49;;;;;;;16.93;12.10;;;14.70;99.90;;;;;;4145441;28;20221;-73
2023/06/09 00:52:52;;;;;;;15.37;12.53;;;14.60;99.90;;;;;;4144399;28;20268;-74
2023/06/09 00:54:54;;;;;;;17.37;12.87;;;14.60;99.90;;;;;;4150158;28;20218;-74
2023/06/09 00:56:58;;;;;;;16.87;12.47;;;14.60;99.90;;;;;;4148481;28;20214;-74
2023/06/09 00:59:00;;;;;;;18.17;12.17;;;14.60;99.90;;;;;;4150342;28;20262;-74
2023/06/09 01:01:02;;;;;;;14.50;12.40;;;14.60;99.90;;;;;;4145581;28;20200;-74
2023/06/09 01:03:04;;;;;;;16.13;12.50;;;14.50;99.90;;;;;;4148229;28;20941;-74
2023/06/09 01:05:08;;;;;;;15.83;12.40;;;14.50;99.90;;;;;;4148163;28;20215;-74
2023/06/09 01:07:20;;;;;;;15.13;11.60;;;14.50;99.90;;;;;;4146362;28;20218;-74
2023/06/09 01:09:29;;;;;;;13.73;10.70;;;14.50;99.90;;;;;;4150678;28;20205;-74
2023/06/09 01:11:35;;;;;;;16.90;12.17;;;14.50;99.90;;;;;;4146189;28;20308;-74
2023/06/09 01:13:43;;;;;;;15.70;11.50;;;14.40;99.90;;;;;;4148175;28;20237;-74
2023/06/09 01:15:53;;;;;;;15.43;11.53;;;14.40;99.90;;;;;;4149428;28;20253;-74
2023/06/09 01:18:00;;;;;;;16.03;12.57;;;14.40;99.90;;;;;;4147916;28;20766;-74
2023/06/09 01:20:05;;;;;;;18.50;12.43;;;14.40;99.90;;;;;;4148194;28;20228;-74
2023/06/09 01:22:12;;;;;;;14.67;11.77;;;14.40;99.90;;;;;;4153619;28;20211;-74
2023/06/09 01:24:30;;;;;;;15.37;12.50;;;14.30;99.90;;;;;;4150520;28;20243;-74
2023/06/09 01:26:34;;;;;;;17.27;12.00;;;14.30;99.90;;;;;;4156728;28;20235;-74
2023/06/09 01:28:38;;;;;;;14.00;11.53;;;14.30;99.90;;;;;;4150977;28;20226;-74
2023/06/09 01:30:42;;;;;;;16.83;12.80;;;14.30;99.90;;;;;;4149679;28;20221;-74
2023/06/09 01:32:45;;;;;;;18.13;13.53;;;14.30;99.90;;;;;;4142662;28;21106;-74
2023/06/09 01:34:48;;;;;;;16.07;12.23;;;14.20;99.90;;;;;;4145762;28;20248;-74
2023/06/09 01:36:51;;;;;;;15.77;12.10;;;14.20;99.90;;;;;;4142578;28;21016;-75
2023/06/09 01:38:54;;;;;;;17.27;12.87;;;14.20;99.90;;;;;;4142442;28;20225;-74
2023/06/09 01:40:56;;;;;;;15.97;12.00;;;14.20;99.90;;;;;;4147807;28;20638;-74
2023/06/09 01:43:01;;;;;;;15.47;12.00;;;14.20;99.90;;;;;;4145048;28;20253;-74
2023/06/09 01:45:03;;;;;;;16.43;12.70;;;14.20;99.90;;;;;;4147370;28;20699;-74
2023/06/09 01:47:06;;;;;;;16.70;12.60;;;14.20;99.90;;;;;;4145294;28;20231;-74
2023/06/09 01:49:15;;;;;;;18.90;12.80;;;14.10;99.90;;;;;;4145600;28;20265;-74
2023/06/09 01:51:24;;;;;;;21.20;13.37;;;14.10;99.90;;;;;;4144647;28;20223;-74
2023/06/09 01:53:30;;;;;;;16.43;13.20;;;14.10;99.90;;;;;;4144220;28;20221;-74
2023/06/09 01:55:37;;;;;;;15.77;13.03;;;14.10;99.90;;;;;;4145282;28;20734;-74
2023/06/09 01:57:49;;;;;;;17.20;12.23;;;14.10;99.90;;;;;;4146235;28;20226;-74
2023/06/09 01:59:56;;;;;;;15.40;12.30;;;14.10;99.90;;;;;;4144353;28;20259;-74
2023/06/09 02:01:59;;;;;;;17.33;11.93;;;14.10;99.90;;;;;;4136864;28;20505;-74
2023/06/09 02:04:05;;;;;;;16.93;12.37;;;14.10;99.90;;;;;;4149037;28;20228;-74
2023/06/09 02:06:07;;;;;;;16.23;12.87;;;14.00;99.90;;;;;;4142295;28;20684;-74
2023/06/09 02:08:10;;;;;;;17.83;12.70;;;14.00;99.90;;;;;;4144495;28;20308;-74
2023/06/09 02:10:13;;;;;;;16.27;13.00;;;14.00;99.90;;;;;;4141845;28;20243;-74
2023/06/09 02:12:14;;;;;;;15.20;12.13;;;14.00;99.90;;;;;;4138397;28;20235;-75
2023/06/09 02:14:17;;;;;;;14.90;11.37;;;14.00;99.90;;;;;;4135919;28;20228;-74
2023/06/09 02:16:21;;;;;;;15.23;11.77;;;13.90;99.90;;;;;;4145406;28;20200;-74
2023/06/09 02:18:24;;;;;;;17.13;12.40;;;13.90;99.90;;;;;;4145198;28;20306;-74
2023/06/09 02:20:27;;;;;;;16.03;12.37;;;13.90;99.90;;;;;;4146475;28;20761;-74
2023/06/09 02:22:29;;;;;;;16.57;13.03;;;13.80;99.90;;;;;;4150581;28;20305;-75
2023/06/09 02:24:31;;;;;;;16.10;12.40;;;13.80;99.90;;;;;;4148347;28;20238;-74
2023/06/09 02:26:34;;;;;;;17.43;13.03;;;13.80;99.90;;;;;;4145132;28;20753;-74
2023/06/09 02:28:36;;;;;;;19.43;13.03;;;13.80;99.90;;;;;;4146956;28;20212;-74
2023/06/09 02:30:38;;;;;;;18.93;13.57;;;13.80;99.90;;;;;;4147564;28;20218;-74
2023/06/09 02:32:42;;;;;;;17.20;13.17;;;13.80;99.90;;;;;;4149292;28;20311;-74
2023/06/09 02:34:45;;;;;;;17.73;14.07;;;13.70;99.90;;;;;;4150724;28;20224;-74
2023/06/09 02:36:47;;;;;;;19.13;14.13;;;13.70;99.90;;;;;;4147678;28;20211;-74
2023/06/09 02:38:49;;;;;;;19.77;15.87;;;13.70;99.90;;;;;;4146016;28;20209;-74
2023/06/09 02:40:51;;;;;;;19.70;15.23;;;13.70;99.90;;;;;;4150031;28;20322;-74
2023/06/09 02:42:53;;;;;;;18.27;14.47;;;13.70;99.90;;;;;;4151253;28;20303;-74
2023/06/09 02:44:55;;;;;;;20.43;15.50;;;13.70;99.90;;;;;;4145660;28;20224;-74
2023/06/09 02:46:57;;;;;;;20.10;14.70;;;13.70;99.90;;;;;;4148860;28;20226;-74
2023/06/09 02:49:00;;;;;;;19.13;15.07;;;13.70;99.90;;;;;;4146505;28;20216;-73
2023/06/09 02:51:03;;;;;;;19.80;14.10;;;13.70;99.90;;;;;;4149430;28;20209;-74
2023/06/09 02:53:05;;;;;;;19.93;15.83;;;13.70;99.90;;;;;;4149744;28;20213;-74
2023/06/09 02:55:08;;;;;;;25.23;16.10;;;13.70;99.90;;;;;;4152206;28;20276;-74
2023/06/09 02:57:10;;;;;;;22.83;15.83;;;13.70;99.90;;;;;;4146834;28;20683;-74
2023/06/09 02:59:12;;;;;;;20.67;15.00;;;13.70;99.90;;;;;;4142458;28;20298;-75
2023/06/09 03:01:17;;;;;;;18.90;15.67;;;13.70;99.90;;;;;;4147919;28;20273;-74
2023/06/09 03:03:19;;;;;;;20.53;15.20;;;13.70;99.90;;;;;;4151277;28;20230;-75
2023/06/09 03:05:24;;;;;;;19.23;14.73;;;13.70;99.90;;;;;;4151807;28;20213;-75
2023/06/09 03:07:26;;;;;;;19.00;13.87;;;13.60;99.90;;;;;;4145944;28;20212;-74
2023/06/09 03:09:29;;;;;;;19.17;14.70;;;13.60;99.90;;;;;;4146751;28;20282;-75
2023/06/09 03:11:32;;;;;;;17.73;13.93;;;13.60;99.90;;;;;;4149490;28;20212;-74
2023/06/09 03:13:34;;;;;;;20.67;15.33;;;13.60;99.90;;;;;;4141513;28;20224;-74
2023/06/09 03:15:36;;;;;;;20.77;16.27;;;13.60;99.90;;;;;;4140511;28;20307;-74
2023/06/09 03:17:41;;;;;;;22.93;17.37;;;13.60;99.90;;;;;;4152026;28;20216;-75
2023/06/09 03:19:43;;;;;;;23.83;17.23;;;13.60;99.90;;;;;;4150046;28;20231;-74
2023/06/09 03:21:46;;;;;;;21.57;16.33;;;13.60;99.90;;;;;;4149941;28;20590;-74
2023/06/09 03:23:48;;;;;;;21.97;16.70;;;13.60;99.90;;;;;;4151662;28;20255;-74
2023/06/09 03:25:51;;;;;;;20.70;16.27;;;13.60;99.90;;;;;;4149336;28;20251;-74
2023/06/09 03:27:54;;;;;;;20.67;15.73;;;13.60;99.90;;;;;;4151699;28;20215;-74
2023/06/09 03:29:56;;;;;;;19.27;15.67;;;13.60;99.90;;;;;;4151753;28;20235;-75
2023/06/09 03:31:58;;;;;;;24.13;17.37;;;13.60;99.90;;;;;;4151863;28;20278;-74
2023/06/09 03:34:00;;;;;;;22.80;17.27;;;13.60;99.90;;;;;;4149972;28;20324;-74
2023/06/09 03:36:02;;;;;;;22.90;16.53;;;13.60;99.90;;;;;;4146395;28;20212;-75
2023/06/09 03:38:06;;;;;;;21.40;16.47;;;13.60;99.90;;;;;;4149096;28;20207;-75
2023/06/09 03:40:09;;;;;;;21.70;16.50;;;13.60;99.90;;;;;;4149587;28;20230;-74
2023/06/09 03:42:11;;;;;;;19.87;15.57;;;13.60;99.90;;;;;;4152349;28;20262;-74
2023/06/09 03:44:13;;;;;;;24.07;15.93;;;13.60;99.90;;;;;;4152799;28;20259;-74
2023/06/09 03:46:15;;;;;;;19.03;15.00;;;13.70;99.90;;;;;;4148265;28;20246;-74
2023/06/09 03:48:17;;;;;;;18.80;15.30;;;13.60;99.90;;;;;;4148468;28;20216;-74
2023/06/09 03:50:20;;;;;;;19.57;15.57;;;13.60;99.90;;;;;;4152121;28;20707;-74
2023/06/09 03:52:22;;;;;;;21.20;14.90;;;13.60;99.90;;;;;;4152783;28;20238;-74
2023/06/09 03:54:26;;;;;;;22.97;16.90;;;13.60;99.90;;;;;;4145661;28;20224;-74
2023/06/09 03:56:29;;;;;;;22.47;16.20;;;13.60;99.90;;;;;;4145500;28;20246;-74
2023/06/09 03:58:31;;;;;;;19.70;15.30;;;13.70;99.90;;;;;;4145399;28;20235;-74
2023/06/09 04:00:33;;;;;;;21.40;16.33;;;13.60;99.90;;;;;;4142353;28;20646;-75
2023/06/09 04:02:39;;;;;;;24.70;16.70;;;13.70;99.90;;;;;;4139998;28;20219;-74
2023/06/09 04:04:43;;;;;;;20.00;15.53;;;13.60;99.90;;;;;;4150072;28;20763;-74
2023/06/09 04:06:45;;;;;;;23.00;16.23;;;13.60;99.90;;;;;;4148352;28;20306;-74
2023/06/09 04:08:48;;;;;;;22.97;16.77;;;13.60;99.90;;;;;;4147907;28;20272;-73
2023/06/09 04:10:51;;;;;;;22.97;17.43;;;13.60;99.90;;;;;;4150697;28;21035;-75
2023/06/09 04:12:54;;;;;;;34.37;20.63;;;13.70;99.90;;;;;;4147206;28;20619;-74
2023/06/09 04:14:56;;;;;;;23.37;18.07;;;13.70;99.90;;;;;;4136262;28;20208;-74
2023/06/09 04:16:58;;;;;;;23.30;16.67;;;13.70;99.90;;;;;;4151487;28;20212;-74
2023/06/09 04:19:00;;;;;;;22.87;16.50;;;13.70;99.90;;;;;;4143709;28;20230;-75
2023/06/09 04:21:05;;;;;;;22.90;17.20;;;13.70;99.90;;;;;;4145527;28;20338;-74
2023/06/09 04:23:08;;;;;;;20.40;16.13;;;13.70;99.90;;;;;;4150522;28;20223;-74
2023/06/09 04:25:11;;;;;;;23.30;16.57;;;13.70;99.90;;;;;;4146248;28;20243;-74
2023/06/09 04:27:15;;;;;;;22.03;16.60;;;13.70;99.90;;;;;;4149261;28;20315;-74
2023/06/09 04:29:22;;;;;;;22.63;17.23;;;13.70;99.90;;;;;;4147019;28;20235;-74
2023/06/09 04:31:24;;;;;;;25.63;19.03;;;13.80;99.90;;;;;;4151068;28;20210;-74
2023/06/09 04:33:27;;;;;;;25.77;18.70;;;13.80;99.90;;;;;;4142807;28;20247;-75
2023/06/09 04:35:30;;;;;;;22.33;17.17;;;13.80;99.90;;;;;;4145502;28;20299;-74
2023/06/09 04:37:32;;;;;;;23.13;17.40;;;13.80;99.90;;;;;;4147856;28;20212;-75
2023/06/09 04:39:35;;;;;;;24.83;18.30;;;13.90;99.90;;;;;;4148819;28;20642;-74
2023/06/09 04:41:38;;;;;;;23.77;18.47;;;13.90;99.90;;;;;;4146731;28;20231;-75
2023/06/09 04:43:41;;;;;;;24.03;18.60;;;13.90;99.90;;;;;;4146130;28;20221;-75
2023/06/09 04:45:43;;;;;;;24.27;17.70;;;13.90;99.90;;;;;;4147030;28;20277;-75
2023/06/09 04:47:45;;;;;;;21.77;17.40;;;13.90;99.90;;;;;;4148669;28;20386;-75
2023/06/09 04:49:49;;;;;;;23.80;17.83;;;13.90;99.90;;;;;;4145522;28;20710;-75
2023/06/09 04:51:51;;;;;;;20.17;16.07;;;14.00;99.90;;;;;;4146289;28;20291;-75
2023/06/09 04:53:54;;;;;;;24.23;15.57;;;14.00;99.90;;;;;;4147742;28;20346;-75
2023/06/09 04:55:57;;;;;;;19.93;15.97;;;14.00;99.90;;;;;;4140387;28;20208;-75
2023/06/09 04:57:59;;;;;;;21.33;16.37;;;14.00;99.90;;;;;;4150131;28;20261;-75
2023/06/09 05:00:15;;;;;;;18.00;14.03;;;14.00;99.90;;;;;;4140301;28;20218;-75
2023/06/09 05:02:18;;;;;;;20.53;15.23;;;14.00;99.90;;;;;;4146363;28;20235;-74
2023/06/09 05:04:20;;;;;;;20.13;14.63;;;14.10;99.90;;;;;;4147588;28;20262;-74
2023/06/09 05:06:22;;;;;;;19.30;14.60;;;14.10;99.90;;;;;;4144695;28;20217;-75
2023/06/09 05:08:24;;;;;;;16.93;13.63;;;14.10;99.90;;;;;;4147290;28;20215;-74
2023/06/09 05:10:26;;;;;;;18.70;14.70;;;14.10;99.90;;;;;;4145991;28;20211;-74
2023/06/09 05:12:28;;;;;;;16.33;13.20;;;14.20;99.90;;;;;;4147575;28;20208;-74
2023/06/09 05:14:30;;;;;;;15.37;12.87;;;14.20;99.90;;;;;;4129425;28;20242;-74
2023/06/09 05:16:35;;;;;;;15.93;12.87;;;14.20;99.90;;;;;;4143181;28;20317;-74
2023/06/09 05:18:37;;;;;;;18.10;13.53;;;14.30;99.90;;;;;;4146261;28;20221;-75
2023/06/09 05:20:38;;;;;;;17.17;13.17;;;14.30;99.90;;;;;;4147379;28;20276;-75
2023/06/09 05:22:42;;;;;;;16.50;12.17;;;14.40;99.90;;;;;;4145145;28;20325;-75
2023/06/09 05:24:44;;;;;;;14.97;12.63;;;14.40;99.90;;;;;;4147354;28;20242;-75
2023/06/09 05:26:46;;;;;;;19.63;14.33;;;14.50;99.90;;;;;;4145548;28;20208;-75
2023/06/09 05:28:49;;;;;;;21.77;17.07;;;14.60;99.90;;;;;;4141283;28;20308;-75
2023/06/09 05:30:51;;;;;;;18.23;14.03;;;14.60;99.90;;;;;;4141909;28;20210;-75
2023/06/09 05:32:54;;;;;;;18.70;15.57;;;14.70;99.90;;;;;;4147781;28;20248;-75
2023/06/09 05:34:56;;;;;;;16.47;13.03;;;14.70;99.90;;;;;;4143014;28;20249;-75
2023/06/09 05:36:58;;;;;;;19.87;14.27;;;14.80;99.90;;;;;;4145736;28;20209;-74
2023/06/09 05:39:00;;;;;;;15.93;12.93;;;14.90;99.90;;;;;;4144890;28;20212;-74
2023/06/09 05:41:02;;;;;;;15.53;13.13;;;14.90;99.90;;;;;;4146335;28;20296;-74
2023/06/09 05:43:04;;;;;;;16.80;12.63;;;15.00;99.90;;;;;;4144918;28;20226;-74
2023/06/09 05:45:07;;;;;;;14.30;11.67;;;15.10;99.90;;;;;;4146238;28;20208;-74
2023/06/09 05:47:10;;;;;;;12.97;11.40;;;15.20;99.90;;;;;;4145245;28;20237;-74
2023/06/09 05:49:13;;;;;;;13.17;11.07;;;15.30;99.90;;;;;;4145538;28;20277;-74
2023/06/09 05:51:15;;;;;;;11.60;10.20;;;15.40;99.90;;;;;;4144354;28;20211;-74
2023/06/09 05:53:17;;;;;;;13.40;11.57;;;15.50;99.90;;;;;;4147083;28;20266;-74
2023/06/09 05:55:19;;;;;;;12.37;10.53;;;15.50;99.90;;;;;;4123622;28;20215;-74
2023/06/09 05:57:22;;;;;;;11.50;10.20;;;15.60;99.90;;;;;;4144147;28;20227;-74
2023/06/09 05:59:24;;;;;;;14.43;10.70;;;15.70;99.90;;;;;;4142727;28;20551;-75
2023/06/09 06:01:26;;;;;;;12.47;9.70;;;15.70;99.90;;;;;;4144949;28;20850;-75
2023/06/09 06:03:28;;;;;;;10.80;9.30;;;15.80;99.90;;;;;;4145446;28;20231;-74
2023/06/09 06:05:32;;;;;;;10.97;9.33;;;15.90;99.90;;;;;;4133857;28;20267;-74
2023/06/09 06:07:36;;;;;;;11.27;9.07;;;16.00;99.90;;;;;;4136236;28;20211;-74
2023/06/09 06:09:40;;;;;;;11.27;8.83;;;16.00;99.90;;;;;;4144860;28;20238;-75
2023/06/09 06:11:42;;;;;;;9.53;8.50;;;16.10;99.90;;;;;;4146771;28;20204;-76
2023/06/09 06:13:44;;;;;;;11.80;8.97;;;16.20;99.90;;;;;;4136693;28;20988;-75
2023/06/09 06:15:46;;;;;;;12.37;9.90;;;16.40;99.90;;;;;;4141572;28;20216;-75
2023/06/09 06:17:48;;;;;;;12.10;10.13;;;16.40;99.90;;;;;;4146651;28;20311;-75
2023/06/09 06:19:51;;;;;;;12.73;9.57;;;16.50;99.90;;;;;;4147161;28;20297;-74
2023/06/09 06:21:55;;;;;;;12.47;9.73;;;16.60;99.90;;;;;;4148211;28;20243;-74
2023/06/09 06:23:57;;;;;;;12.57;8.63;;;16.70;99.90;;;;;;4144781;28;20605;-74
2023/06/09 06:26:00;;;;;;;10.50;8.50;;;16.80;99.90;;;;;;4149556;28;20204;-74
2023/06/09 06:28:03;;;;;;;9.63;8.27;;;16.80;99.90;;;;;;4149370;28;20725;-74
2023/06/09 06:30:08;;;;;;;10.00;8.30;;;16.80;99.90;;;;;;4148191;28;20212;-74
2023/06/09 06:32:11;;;;;;;10.03;8.33;;;16.90;99.90;;;;;;4151971;28;20708;-74
2023/06/09 06:34:13;;;;;;;11.03;8.27;;;16.90;99.90;;;;;;4151500;28;20356;-74
2023/06/09 06:36:21;;;;;;;10.97;8.03;;;17.00;99.90;;;;;;4150585;28;20299;-74
2023/06/09 06:38:24;;;;;;;10.27;8.03;;;17.10;99.90;;;;;;4149173;28;20697;-74
2023/06/09 06:40:27;;;;;;;9.10;7.67;;;17.20;99.90;;;;;;4151143;28;20279;-75
2023/06/09 06:42:29;;;;;;;9.23;7.30;;;17.30;99.90;;;;;;4151644;28;20712;-74
2023/06/09 06:44:31;;;;;;;10.43;7.67;;;17.40;99.90;;;;;;4151475;28;20799;-74
2023/06/09 06:46:33;;;;;;;9.20;6.97;;;17.40;99.90;;;;;;4148652;28;20208;-75
2023/06/09 06:48:38;;;;;;;12.73;7.17;;;17.50;99.90;;;;;;4148888;28;20627;-75
2023/06/09 06:50:40;;;;;;;10.17;7.40;;;17.50;99.90;;;;;;4153209;28;20204;-75
2023/06/09 06:52:42;;;;;;;8.43;7.20;;;17.60;99.90;;;;;;4150117;28;20294;-75
2023/06/09 06:54:46;;;;;;;8.10;7.03;;;17.60;99.90;;;;;;4146522;28;20681;-75
2023/06/09 06:56:48;;;;;;;9.07;7.27;;;17.70;99.90;;;;;;4149351;28;20213;-75
2023/06/09 06:58:52;;;;;;;8.73;7.03;;;17.70;99.90;;;;;;4144782;28;20221;-75
2023/06/09 07:00:55;;;;;;;7.73;6.87;;;17.70;99.90;;;;;;4146296;28;20237;-75
2023/06/09 07:02:57;;;;;;;8.33;6.53;;;17.80;99.90;;;;;;4148535;28;20239;-75
2023/06/09 07:05:00;;;;;;;8.40;6.73;;;17.80;99.90;;;;;;4151722;28;20216;-76
2023/06/09 07:07:02;;;;;;;8.20;6.77;;;17.90;99.90;;;;;;4146292;28;20311;-75
2023/06/09 07:09:04;;;;;;;9.27;6.43;;;17.90;99.90;;;;;;4148712;28;20219;-74
2023/06/09 07:11:07;;;;;;;7.87;6.40;;;18.00;99.90;;;;;;4145788;28;20295;-74
2023/06/09 07:13:09;;;;;;;8.87;6.10;;;18.00;99.90;;;;;;4153708;28;20221;-74
2023/06/09 07:15:12;;;;;;;8.70;6.93;;;18.00;99.90;;;;;;4151114;28;20211;-74
2023/06/09 07:17:13;;;;;;;9.23;6.07;;;18.10;99.90;;;;;;4143472;28;20843;-74
2023/06/09 07:19:15;;;;;;;7.00;6.10;;;18.20;99.90;;;;;;4145656;28;20275;-74
2023/06/09 07:21:17;;;;;;;7.13;5.90;;;18.20;99.90;;;;;;4149368;28;20229;-75
2023/06/09 07:23:19;;;;;;;7.83;5.90;;;18.30;99.90;;;;;;4148621;28;20328;-76
2023/06/09 07:25:21;;;;;;;7.03;5.73;;;18.30;99.90;;;;;;4151898;28;20303;-74
2023/06/09 07:27:24;;;;;;;7.43;6.23;;;18.40;99.90;;;;;;4147504;28;20215;-74
2023/06/09 07:29:27;;;;;;;8.03;5.80;;;18.40;99.90;;;;;;4147404;28;20593;-75
2023/06/09 07:31:29;;;;;;;9.03;5.77;;;18.50;99.90;;;;;;4147680;28;20219;-76
2023/06/09 07:33:32;;;;;;;6.67;5.80;;;18.50;99.90;;;;;;4147364;28;20263;-74
2023/06/09 07:35:33;;;;;;;9.07;6.23;;;18.60;99.90;;;;;;4147552;28;20203;-74
2023/06/09 07:37:39;;;;;;;8.73;6.47;;;18.60;99.90;;;;;;4144711;28;20209;-74
2023/06/09 07:39:41;;;;;;;6.90;5.70;;;18.70;99.90;;;;;;4148062;28;20745;-74
2023/06/09 07:41:43;;;;;;;7.43;5.80;;;18.80;99.90;;;;;;4141806;28;20232;-74
2023/06/09 07:43:46;;;;;;;7.90;5.77;;;18.80;99.90;;;;;;4144598;28;20234;-74
2023/06/09 07:45:48;;;;;;;7.30;5.73;;;18.90;99.90;;;;;;4146252;28;20314;-74
2023/06/09 07:47:50;;;;;;;7.47;6.20;;;19.00;99.90;;;;;;4150678;28;20218;-75
2023/06/09 07:49:52;;;;;;;8.70;6.40;;;19.10;99.90;;;;;;4148488;28;20255;-75
2023/06/09 07:51:55;;;;;;;8.07;6.33;;;19.10;99.90;;;;;;4148406;28;20693;-77
2023/06/09 07:53:57;;;;;;;8.30;6.27;;;19.20;99.90;;;;;;4148374;28;20879;-75
2023/06/09 07:55:59;;;;;;;7.93;5.70;;;19.30;99.90;;;;;;4148895;28;20210;-75
2023/06/09 07:58:01;;;;;;;9.10;6.27;;;19.30;99.90;;;;;;4150263;28;20285;-74
2023/06/09 08:00:05;;;;;;;7.53;5.43;;;19.40;99.90;;;;;;4150458;28;20214;-76
2023/06/09 08:02:07;;;;;;;7.10;5.87;;;19.50;99.90;;;;;;4146936;28;20688;-75
2023/06/09 08:04:10;;;;;;;6.40;4.93;;;19.60;99.90;;;;;;4147735;28;20723;-74
2023/06/09 08:06:12;;;;;;;9.37;6.20;;;19.60;99.90;;;;;;4149294;28;20727;-75
2023/06/09 08:08:14;;;;;;;7.73;5.53;;;19.70;99.90;;;;;;4150018;28;20215;-74
2023/06/09 08:10:16;;;;;;;8.63;6.30;;;19.70;99.90;;;;;;4147167;28;20268;-75
2023/06/09 08:12:18;;;;;;;5.93;5.07;;;19.80;99.90;;;;;;4145989;28;20217;-75
2023/06/09 08:14:22;;;;;;;7.40;5.00;;;19.90;99.90;;;;;;4148595;28;20970;-75
2023/06/09 08:16:25;;;;;;;6.83;5.20;;;19.90;99.90;;;;;;4147858;28;20211;-75
2023/06/09 08:18:27;;;;;;;6.67;5.23;;;20.00;99.90;;;;;;4147916;28;20218;-75
2023/06/09 08:20:29;;;;;;;7.57;5.50;;;20.10;99.90;;;;;;4146382;28;20211;-76
2023/06/09 08:22:32;;;;;;;7.53;5.57;;;20.10;99.90;;;;;;4149105;28;20222;-77
2023/06/09 08:24:34;;;;;;;8.00;5.50;;;20.20;99.90;;;;;;4149876;28;20240;-75
2023/06/09 08:26:36;;;;;;;8.07;5.97;;;20.30;99.90;;;;;;4154529;28;20218;-76
2023/06/09 08:28:38;;;;;;;7.20;5.53;;;20.40;99.90;;;;;;4148151;28;20217;-75
2023/06/09 08:30:40;;;;;;;7.17;5.13;;;20.50;99.90;;;;;;4146773;28;20214;-75
2023/06/09 08:32:46;;;;;;;6.47;5.40;;;20.50;99.90;;;;;;4151624;28;20280;-75
2023/06/09 08:34:48;;;;;;;7.57;5.17;;;20.60;99.90;;;;;;4143691;28;20342;-74
2023/06/09 08:36:50;;;;;;;7.97;5.40;;;20.70;99.90;;;;;;4148325;28;20221;-75
2023/06/09 08:38:52;;;;;;;7.47;5.43;;;20.80;99.90;;;;;;4146341;28;20310;-75
2023/06/09 08:40:57;;;;;;;7.17;5.60;;;20.80;99.90;;;;;;4141860;28;20808;-75
2023/06/09 08:43:00;;;;;;;6.40;5.60;;;20.90;99.90;;;;;;4141720;28;20329;-76
2023/06/09 08:45:04;;;;;;;7.33;5.57;;;21.00;99.90;;;;;;4144733;28;20658;-74
2023/06/09 08:47:09;;;;;;;6.63;5.57;;;21.00;99.90;;;;;;4142280;28;20261;-75
2023/06/09 08:49:12;;;;;;;7.23;5.47;;;21.10;99.90;;;;;;4145838;28;20295;-75
2023/06/09 08:51:14;;;;;;;9.33;5.60;;;21.20;99.90;;;;;;4145032;28;20318;-75
2023/06/09 08:53:18;;;;;;;7.77;5.63;;;21.30;99.90;;;;;;4147495;28;20230;-75
2023/06/09 08:55:21;;;;;;;5.63;4.87;;;21.30;99.90;;;;;;4146008;28;20219;-75
2023/06/09 08:57:23;;;;;;;7.80;6.03;;;21.40;99.90;;;;;;4148964;28;20215;-75
2023/06/09 08:59:30;;;;;;;7.40;5.50;;;21.50;99.90;;;;;;4145787;28;20773;-74
2023/06/09 09:01:33;;;;;;;6.70;5.27;;;21.60;99.90;;;;;;4143947;28;20219;-75
2023/06/09 09:03:34;;;;;;;6.77;5.30;;;21.70;99.90;;;;;;4147853;28;20691;-74
2023/06/09 09:05:40;;;;;;;7.13;5.40;;;21.80;99.90;;;;;;4145108;28;20213;-74
2023/06/09 09:07:45;;;;;;;6.17;5.30;;;21.90;99.90;;;;;;4145351;28;20207;-74
2023/06/09 09:09:46;;;;;;;7.23;5.50;;;22.10;99.90;;;;;;4143009;28;20217;-74
2023/06/09 09:11:51;;;;;;;6.90;5.33;;;22.20;99.90;;;;;;4143687;28;20216;-73
2023/06/09 09:13:53;;;;;;;6.87;5.40;;;22.20;99.90;;;;;;4143467;28;20836;-74
2023/06/09 09:15:55;;;;;;;5.67;5.07;;;22.30;99.90;;;;;;4150048;28;20662;-74
2023/06/09 09:17:57;;;;;;;6.53;5.33;;;22.30;99.90;;;;;;4144515;28;20277;-75
2023/06/09 09:20:00;;;;;;;7.13;5.43;;;22.40;99.90;;;;;;4147479;28;20663;-74
2023/06/09 09:22:07;;;;;;;6.47;5.50;;;22.50;99.90;;;;;;4141822;28;20236;-73
2023/06/09 09:24:12;;;;;;;5.93;5.03;;;22.60;99.90;;;;;;4148077;28;20236;-74
2023/06/09 09:26:26;;;;;;;6.67;5.57;;;22.60;99.90;;;;;;4147987;28;20208;-75
2023/06/09 09:28:39;;;;;;;7.57;5.90;;;22.70;99.90;;;;;;4143869;28;20205;-74
2023/06/09 09:30:46;;;;;;;5.90;4.93;;;22.80;99.90;;;;;;4145115;28;20209;-74
2023/06/09 09:32:49;;;;;;;7.93;5.60;;;22.90;99.90;;;;;;4146406;28;20216;-74
2023/06/09 09:34:51;;;;;;;8.20;5.50;;;23.10;99.90;;;;;;4147730;28;21187;-74
2023/06/09 09:36:55;;;;;;;8.30;5.83;;;23.10;99.90;;;;;;4147534;28;20912;-74
2023/06/09 09:39:05;;;;;;;7.30;5.70;;;23.20;99.90;;;;;;4145925;28;20206;-75
2023/06/09 09:41:14;;;;;;;8.30;5.13;;;23.30;99.90;;;;;;4146970;28;20206;-74
2023/06/09 09:43:16;;;;;;;7.50;5.80;;;23.40;99.90;;;;;;4143188;28;20226;-74
2023/06/09 09:45:27;;;;;;;6.87;5.53;;;23.50;99.90;;;;;;4141741;28;20914;-74
2023/06/09 09:47:32;;;;;;;7.37;5.67;;;23.60;99.90;;;;;;4150187;28;20226;-73
2023/06/09 09:49:34;;;;;;;7.73;5.47;;;23.70;99.90;;;;;;4150171;28;20305;-73
2023/06/09 09:51:37;;;;;;;6.93;5.60;;;23.80;99.90;;;;;;4145106;28;20727;-73
2023/06/09 09:53:44;;;;;;;6.43;5.40;;;24.00;99.90;;;;;;4144626;28;20689;-74
2023/06/09 09:55:47;;;;;;;8.63;6.30;;;24.10;99.90;;;;;;4141879;28;20311;-74
2023/06/09 09:57:50;;;;;;;6.50;5.30;;;24.30;99.90;;;;;;4145839;28;20212;-74
2023/06/09 09:59:52;;;;;;;6.53;5.40;;;24.40;99.90;;;;;;4151069;28;20306;-74
2023/06/09 10:01:56;;;;;;;7.67;5.70;;;24.50;99.90;;;;;;4146441;28;20219;-75
2023/06/09 10:03:59;;;;;;;6.60;5.23;;;24.60;99.90;;;;;;4144943;28;20322;-74
2023/06/09 10:06:03;;;;;;;6.37;5.23;;;24.70;99.90;;;;;;4147533;28;20219;-74
2023/06/09 10:08:06;;;;;;;6.80;5.30;;;24.80;99.90;;;;;;4151374;28;20207;-74
2023/06/09 10:10:09;;;;;;;7.77;5.33;;;24.90;99.90;;;;;;4149150;28;20214;-75
2023/06/09 10:12:13;;;;;;;7.07;5.73;;;25.00;99.90;;;;;;4148317;28;20231;-75
2023/06/09 10:14:16;;;;;;;8.93;5.60;;;25.10;99.90;;;;;;4150154;28;20311;-74
2023/06/09 10:16:20;;;;;;;6.83;5.53;;;25.20;99.90;;;;;;4145950;28;20246;-75
2023/06/09 10:18:23;;;;;;;8.37;5.17;;;25.20;99.90;;;;;;4144694;28;20333;-75
2023/06/09 10:20:25;;;;;;;9.13;5.27;;;25.40;99.90;;;;;;4147475;28;20207;-75
2023/06/09 10:22:27;;;;;;;7.13;5.40;;;25.40;99.90;;;;;;4150340;28;20234;-75
2023/06/09 10:24:29;;;;;;;5.73;4.70;;;25.60;99.90;;;;;;4146147;28;20318;-74
2023/06/09 10:26:32;;;;;;;5.70;4.73;;;25.70;93.50;;;;;;4149446;28;20975;-75
2023/06/09 10:28:36;;;;;;;6.73;4.80;;;25.80;98.10;;;;;;4148718;28;20295;-76
2023/06/09 10:30:38;;;;;;;7.30;5.20;;;25.90;96.00;;;;;;4149825;28;20300;-76
2023/06/09 10:32:48;;;;;;;10.47;4.90;;;26.10;92.90;;;;;;4154509;28;20235;-75